Time;durP1;ratioP1;P1;durP2;ratioP2;P2;SDS_P1;SDS_P2;PMS_P1;PMS_P2;Temp;Humidity;BMP_temperature;BMP_pressure;BME280_temperature;BME280_humidity;BME280_pressure;Samples;Min_cycle;Max_cycle;Signal;HPM_P1;HPM_P2
2022/09/20 00:01:31;;;;;;;7.50;1.20;;;12.50;94.80;;;;;;5053409;28;20166;-83
2022/09/20 00:17:33;;;;;;;7.07;0.93;;;12.40;95.10;;;;;;5024769;28;20077;-83
2022/09/20 00:19:58;;;;;;;8.85;1.20;;;12.40;95.10;;;;;;5052773;28;20075;-84
2022/09/20 00:22:24;;;;;;;12.35;1.35;;;12.30;95.20;;;;;;5036188;28;20095;-83
2022/09/20 00:24:49;;;;;;;4.95;1.25;;;12.30;95.30;;;;;;5036474;28;20031;-83
2022/09/20 00:27:15;;;;;;;9.73;1.85;;;12.30;95.40;;;;;;5036737;28;20033;-84
2022/09/20 00:29:41;;;;;;;7.82;1.40;;;12.40;95.60;;;;;;5053261;28;20069;-86
2022/09/20 00:32:07;;;;;;;5.60;1.15;;;12.30;95.70;;;;;;5053480;28;20021;-85
2022/09/20 00:37:16;;;;;;;7.55;1.60;;;12.40;96.00;;;;;;5055092;28;20044;-84
2022/09/20 00:39:42;;;;;;;7.15;1.83;;;12.40;95.90;;;;;;5039408;28;20025;-85
2022/09/20 00:42:12;;;;;;;8.32;1.40;;;12.30;95.90;;;;;;5039164;28;20447;-85
2022/09/20 00:44:48;;;;;;;10.35;1.52;;;12.40;96.00;;;;;;5056267;28;20028;-84
2022/09/20 00:47:35;;;;;;;6.15;1.33;;;12.40;96.00;;;;;;5052747;28;20025;-85
2022/09/20 00:50:15;;;;;;;8.40;1.02;;;12.40;96.00;;;;;;5056428;28;20124;-84
2022/09/20 00:52:46;;;;;;;5.82;1.30;;;12.30;96.00;;;;;;5054245;28;20017;-85
2022/09/20 00:55:14;;;;;;;10.80;1.40;;;12.20;96.00;;;;;;5054552;28;20043;-85
2022/09/20 00:57:41;;;;;;;10.18;1.15;;;12.20;96.00;;;;;;5038177;28;20078;-85
2022/09/20 01:00:10;;;;;;;11.55;1.10;;;12.30;96.00;;;;;;5037186;28;20025;-84
2022/09/20 01:02:40;;;;;;;8.93;1.13;;;12.20;96.10;;;;;;5056509;28;20029;-84
2022/09/20 01:05:08;;;;;;;8.55;0.82;;;12.30;96.20;;;;;;5054348;28;20025;-84
2022/09/20 01:07:35;;;;;;;7.72;1.10;;;12.20;96.20;;;;;;5059435;28;20017;-84
2022/09/20 01:10:00;;;;;;;5.38;0.88;;;12.30;96.30;;;;;;5060416;28;20037;-84
2022/09/20 01:12:30;;;;;;;10.95;1.55;;;12.20;96.30;;;;;;5056159;28;20033;-85
2022/09/20 01:14:58;;;;;;;17.95;1.50;;;12.30;96.40;;;;;;5054761;28;20021;-85
2022/09/20 01:17:26;;;;;;;11.50;1.27;;;12.30;96.40;;;;;;5037004;28;20053;-85
2022/09/20 01:20:16;;;;;;;7.65;1.08;;;12.30;96.40;;;;;;5054152;28;20021;-83
2022/09/20 01:22:48;;;;;;;8.00;0.90;;;12.30;96.40;;;;;;5052133;28;20040;-84
2022/09/20 01:25:16;;;;;;;6.03;1.10;;;12.30;96.40;;;;;;5052568;28;20033;-82
2022/09/20 01:27:47;;;;;;;5.18;1.05;;;12.30;96.50;;;;;;5052053;28;20136;-84
2022/09/20 01:30:42;;;;;;;6.38;1.05;;;12.30;96.50;;;;;;5053728;28;20044;-84
2022/09/20 01:33:16;;;;;;;9.00;1.38;;;12.30;96.50;;;;;;5052124;28;20040;-84
2022/09/20 01:35:44;;;;;;;10.40;1.05;;;12.20;96.50;;;;;;5051627;28;20583;-84
2022/09/20 01:38:34;;;;;;;8.27;1.20;;;12.30;96.50;;;;;;5051739;28;20116;-83
2022/09/20 01:41:11;;;;;;;7.95;1.30;;;12.30;96.50;;;;;;5051730;28;20468;-86
2022/09/20 01:43:45;;;;;;;4.93;0.95;;;12.20;96.50;;;;;;5051802;28;20041;-86
2022/09/20 01:46:33;;;;;;;7.97;1.38;;;12.30;96.60;;;;;;5056134;28;20036;-85
2022/09/20 01:49:39;;;;;;;4.75;1.10;;;12.20;96.60;;;;;;5057112;28;20137;-85
2022/09/20 01:52:38;;;;;;;9.55;1.05;;;12.20;96.60;;;;;;4991463;28;20021;-85
2022/09/20 01:55:24;;;;;;;4.82;1.10;;;12.20;96.50;;;;;;5057314;28;20021;-85
2022/09/20 01:58:04;;;;;;;7.50;1.33;;;12.20;96.60;;;;;;5055881;28;20029;-85
2022/09/20 02:00:47;;;;;;;3.78;0.90;;;12.20;96.60;;;;;;5055810;28;20029;-84
2022/09/20 02:03:43;;;;;;;6.72;1.17;;;12.10;96.60;;;;;;5057172;28;20096;-85
2022/09/20 02:06:22;;;;;;;9.68;1.17;;;12.10;96.60;;;;;;5055513;28;20020;-85
2022/09/20 02:09:05;;;;;;;7.00;0.95;;;12.10;96.70;;;;;;5055653;28;20086;-86
2022/09/20 02:12:04;;;;;;;6.05;0.98;;;12.10;96.70;;;;;;5056227;28;20025;-84
2022/09/20 02:14:41;;;;;;;5.35;1.25;;;12.10;96.70;;;;;;5055415;28;20075;-85
2022/09/20 02:17:26;;;;;;;5.32;0.88;;;12.10;96.80;;;;;;5055120;28;20041;-85
2022/09/20 02:20:04;;;;;;;6.85;1.60;;;12.20;96.90;;;;;;5055046;28;20021;-86
2022/09/20 02:23:04;;;;;;;6.68;1.17;;;12.10;96.90;;;;;;5056320;28;20036;-85
2022/09/20 02:25:57;;;;;;;5.65;0.70;;;12.10;96.90;;;;;;5055359;28;20021;-84
2022/09/20 02:29:08;;;;;;;5.68;1.08;;;12.10;97.00;;;;;;5056191;28;20104;-86
2022/09/20 02:31:51;;;;;;;10.40;1.63;;;12.10;97.00;;;;;;5055148;28;20036;-85
2022/09/20 02:34:51;;;;;;;6.82;0.98;;;12.10;97.10;;;;;;5055387;28;20192;-85
2022/09/20 02:37:53;;;;;;;9.95;1.25;;;12.10;97.10;;;;;;5056054;28;20029;-86
2022/09/20 02:40:34;;;;;;;5.32;0.85;;;12.10;97.20;;;;;;5054768;28;20119;-85
2022/09/20 02:43:50;;;;;;;10.48;1.73;;;12.00;97.20;;;;;;5054718;28;20463;-84
2022/09/20 02:46:24;;;;;;;3.95;0.98;;;12.00;97.20;;;;;;4977621;28;20487;-84
2022/09/20 02:49:27;;;;;;;3.80;1.00;;;12.00;97.30;;;;;;4977843;28;20125;-84
2022/09/20 02:52:02;;;;;;;2.92;0.85;;;12.00;97.30;;;;;;5043085;28;20384;-85
2022/09/20 02:54:50;;;;;;;6.95;1.15;;;12.00;97.40;;;;;;5054576;28;20025;-85
2022/09/20 02:57:44;;;;;;;7.93;1.52;;;12.00;97.50;;;;;;5053760;28;20041;-84
2022/09/20 03:00:38;;;;;;;5.38;1.38;;;12.00;97.50;;;;;;5053595;28;20076;-84
2022/09/20 03:03:31;;;;;;;8.73;1.50;;;12.00;97.60;;;;;;5049940;28;20079;-84
2022/09/20 03:06:10;;;;;;;3.55;1.23;;;12.00;97.60;;;;;;5055751;28;20104;-85
2022/09/20 03:09:03;;;;;;;12.05;1.90;;;12.00;97.60;;;;;;5055136;28;20044;-85
2022/09/20 03:11:32;;;;;;;5.43;1.05;;;12.00;97.70;;;;;;5053667;28;20115;-84
2022/09/20 03:14:00;;;;;;;5.00;1.02;;;12.00;97.80;;;;;;5055220;28;20096;-85
2022/09/20 03:16:49;;;;;;;10.93;1.23;;;12.00;97.80;;;;;;5054554;28;20029;-84
2022/09/20 03:19:55;;;;;;;5.65;1.20;;;12.00;97.90;;;;;;5055556;28;20396;-84
2022/09/20 03:22:48;;;;;;;4.97;1.30;;;12.10;98.00;;;;;;5053709;28;20025;-83
2022/09/20 03:25:14;;;;;;;5.82;1.25;;;12.00;98.10;;;;;;5053951;28;20021;-87
2022/09/20 03:28:09;;;;;;;6.13;1.33;;;12.00;98.00;;;;;;5054467;28;20168;-84
2022/09/20 03:30:54;;;;;;;6.40;1.58;;;12.00;98.10;;;;;;5038967;28;20033;-84
2022/09/20 03:33:25;;;;;;;7.68;1.58;;;12.00;98.10;;;;;;5050392;28;20025;-83
2022/09/20 03:36:18;;;;;;;6.95;1.65;;;12.00;98.20;;;;;;5052531;28;20025;-83
2022/09/20 03:39:08;;;;;;;6.72;1.90;;;12.00;98.30;;;;;;5053398;28;20078;-83
2022/09/20 03:42:05;;;;;;;6.47;1.50;;;11.90;98.40;;;;;;5052455;28;20522;-84
2022/09/20 03:44:49;;;;;;;5.35;1.52;;;11.90;98.40;;;;;;5053229;28;20025;-83
2022/09/20 03:47:43;;;;;;;4.88;1.67;;;11.90;98.50;;;;;;5053235;28;20111;-83
2022/09/20 03:50:49;;;;;;;3.97;1.02;;;11.90;98.60;;;;;;5053176;28;20037;-83
2022/09/20 03:53:33;;;;;;;9.32;1.55;;;11.90;98.60;;;;;;5053468;28;20464;-83
2022/09/20 03:55:59;;;;;;;;;;;11.90;98.90;;;;;;5054820;28;20029;-84
2022/09/20 03:59:02;;;;;;;8.10;1.50;;;11.90;99.00;;;;;;5054397;28;19912;-84
2022/09/20 04:01:56;;;;;;;7.95;1.70;;;11.90;98.90;;;;;;5053079;28;20044;-83
2022/09/20 04:04:31;;;;;;;8.38;1.58;;;11.90;98.90;;;;;;5053269;28;20017;-83
2022/09/20 04:07:09;;;;;;;7.07;1.33;;;11.90;98.90;;;;;;5053322;28;20120;-83
2022/09/20 04:10:15;;;;;;;8.75;2.10;;;11.90;99.00;;;;;;5052028;28;20041;-83
2022/09/20 04:13:00;;;;;;;5.43;1.52;;;11.90;99.00;;;;;;5053360;28;20033;-85
2022/09/20 04:15:29;;;;;;;7.20;1.90;;;11.90;99.00;;;;;;5054451;28;20380;-85
2022/09/20 04:18:10;;;;;;;5.95;1.67;;;11.90;99.00;;;;;;5054482;28;20045;-85
2022/09/20 04:20:45;;;;;;;5.63;1.63;;;11.90;99.10;;;;;;5053509;28;20460;-85
2022/09/20 04:23:30;;;;;;;5.55;1.85;;;11.90;99.00;;;;;;5052962;28;20028;-84
2022/09/20 04:25:59;;;;;;;6.93;2.00;;;11.80;99.00;;;;;;5053213;28;20513;-87
2022/09/20 04:28:34;;;;;;;4.80;1.50;;;11.80;99.00;;;;;;5052878;28;20099;-84
2022/09/20 04:31:13;;;;;;;7.07;2.08;;;11.80;99.10;;;;;;5054721;28;20031;-86
2022/09/20 04:33:44;;;;;;;8.10;1.80;;;11.70;99.10;;;;;;5053137;28;20025;-85
2022/09/20 04:36:27;;;;;;;7.40;2.17;;;11.70;99.10;;;;;;5053891;28;20507;-85
2022/09/20 04:39:08;;;;;;;6.10;1.52;;;11.70;99.20;;;;;;5052746;28;20028;-84
2022/09/20 04:41:37;;;;;;;7.90;1.98;;;11.70;99.30;;;;;;5052252;28;20028;-83
2022/09/20 04:44:26;;;;;;;7.35;1.60;;;11.70;99.30;;;;;;5055167;28;20057;-87
2022/09/20 04:47:14;;;;;;;7.18;1.88;;;11.60;99.40;;;;;;5055168;28;20032;-87
2022/09/20 04:49:57;;;;;;;5.82;1.98;;;11.60;99.40;;;;;;5053658;28;20094;-87
2022/09/20 04:52:48;;;;;;;5.03;1.75;;;11.60;99.30;;;;;;5053375;28;20480;-86
2022/09/20 04:55:32;;;;;;;8.77;2.17;;;11.60;99.40;;;;;;5052233;28;20029;-86
2022/09/20 04:58:18;;;;;;;;;;;11.50;99.40;;;;;;5052690;28;20051;-86
2022/09/20 05:01:01;;;;;;;8.55;2.25;;;11.50;99.40;;;;;;5053175;28;19912;-87
2022/09/20 05:03:49;;;;;;;5.40;1.65;;;11.40;99.40;;;;;;5052553;28;20078;-85
2022/09/20 05:06:34;;;;;;;6.63;2.15;;;11.40;99.50;;;;;;5051757;28;20510;-85
2022/09/20 05:09:18;;;;;;;;;;;11.40;99.60;;;;;;5053969;28;20041;-85
2022/09/20 05:12:08;;;;;;;5.28;1.58;;;11.40;99.70;;;;;;5059926;28;19909;-87
2022/09/20 05:14:55;;;;;;;10.93;2.20;;;11.40;99.70;;;;;;5055092;28;20021;-85
2022/09/20 05:17:55;;;;;;;6.40;1.23;;;11.40;99.80;;;;;;5051678;28;20122;-78
2022/09/20 05:20:45;;;;;;;5.88;1.85;;;11.50;99.90;;;;;;5052742;28;20025;-78
2022/09/20 05:23:40;;;;;;;6.57;1.58;;;11.50;99.90;;;;;;5051355;28;20025;-78
2022/09/20 05:26:27;;;;;;;10.95;2.00;;;11.50;99.90;;;;;;5030391;28;20025;-78
2022/09/20 05:29:03;;;;;;;5.25;1.27;;;11.50;99.90;;;;;;5052058;28;20061;-78
2022/09/20 05:31:40;;;;;;;6.70;2.35;;;11.50;99.90;;;;;;5051175;28;20033;-77
2022/09/20 05:34:23;;;;;;;8.48;1.92;;;11.60;99.90;;;;;;5050817;28;20037;-79
2022/09/20 05:37:06;;;;;;;7.53;1.70;;;11.60;99.90;;;;;;5050477;28;20032;-78
2022/09/20 05:39:56;;;;;;;9.40;2.20;;;11.60;99.90;;;;;;5048451;28;20029;-78
2022/09/20 05:42:38;;;;;;;9.73;2.15;;;11.60;99.90;;;;;;5051375;28;20029;-80
2022/09/20 05:45:23;;;;;;;11.15;1.77;;;11.60;99.90;;;;;;5050273;28;20094;-78
2022/09/20 05:47:59;;;;;;;9.95;2.30;;;11.60;99.90;;;;;;5051742;28;20078;-78
2022/09/20 05:50:59;;;;;;;9.98;1.75;;;11.60;99.90;;;;;;5050302;28;20024;-80
2022/09/20 05:53:49;;;;;;;6.72;2.15;;;11.60;99.90;;;;;;5032268;28;20034;-79
2022/09/20 05:56:33;;;;;;;15.15;2.15;;;11.50;99.90;;;;;;5053184;28;20427;-80
2022/09/20 05:59:17;;;;;;;6.88;2.13;;;11.50;99.90;;;;;;5050221;28;20025;-81
2022/09/20 06:01:49;;;;;;;;;;;11.50;99.90;;;;;;5048813;28;20478;-80
2022/09/20 06:04:23;;;;;;;8.38;1.67;;;11.50;99.90;;;;;;5030290;28;19905;-80
2022/09/20 06:06:58;;;;;;;;;;;11.60;99.90;;;;;;5030335;28;20029;-81
2022/09/20 06:09:38;;;;;;;7.60;2.17;;;11.50;99.90;;;;;;5032159;28;20018;-80
2022/09/20 06:12:07;;;;;;;7.78;2.47;;;11.60;99.90;;;;;;5031690;28;20025;-80
2022/09/20 06:15:00;;;;;;;6.55;2.30;;;11.50;99.90;;;;;;5031534;28;20034;-80
2022/09/20 06:17:42;;;;;;;8.37;1.87;;;11.60;99.90;;;;;;5051121;28;20052;-80
2022/09/20 06:20:22;;;;;;;7.00;1.85;;;11.60;99.90;;;;;;5052209;28;20083;-81
2022/09/20 06:22:55;;;;;;;5.60;1.73;;;11.50;99.90;;;;;;5051133;28;20396;-81
2022/09/20 06:25:30;;;;;;;7.43;2.03;;;11.50;99.90;;;;;;5034226;28;20029;-81
2022/09/20 06:28:15;;;;;;;6.25;1.90;;;11.50;99.90;;;;;;5050533;28;20017;-81
2022/09/20 06:30:48;;;;;;;6.75;2.25;;;11.50;99.90;;;;;;5052073;28;20025;-82
2022/09/20 06:33:19;;;;;;;10.57;2.53;;;11.50;99.90;;;;;;5054046;28;20517;-82
2022/09/20 06:42:11;;;;;;;9.32;1.98;;;11.70;99.90;;;;;;5055210;28;20043;-81
2022/09/20 06:44:40;;;;;;;11.25;3.63;;;11.70;99.90;;;;;;5038487;28;20029;-81
2022/09/20 06:47:08;;;;;;;10.73;2.50;;;11.70;99.90;;;;;;5038246;28;20029;-82
2022/09/20 06:49:34;;;;;;;8.00;2.20;;;11.80;99.90;;;;;;5054547;28;20040;-82
2022/09/20 06:52:27;;;;;;;6.00;2.42;;;11.80;99.90;;;;;;5037935;28;20029;-81
2022/09/20 06:54:54;;;;;;;4.80;1.98;;;11.90;99.90;;;;;;5051137;28;20033;-82
2022/09/20 06:57:34;;;;;;;10.55;2.30;;;11.90;99.90;;;;;;5037701;28;20037;-81
2022/09/20 07:00:01;;;;;;;8.23;2.22;;;12.00;99.90;;;;;;5054038;28;20461;-82
2022/09/20 07:02:26;;;;;;;6.05;2.22;;;12.10;99.90;;;;;;5037652;28;20096;-81
2022/09/20 07:04:58;;;;;;;8.90;2.67;;;12.10;99.90;;;;;;5053920;28;20518;-82
2022/09/20 07:07:24;;;;;;;7.05;2.55;;;12.20;99.90;;;;;;5055817;28;20029;-82
2022/09/20 07:09:50;;;;;;;6.43;2.38;;;12.30;99.90;;;;;;5037215;28;20036;-82
2022/09/20 07:12:16;;;;;;;12.07;2.72;;;12.40;99.90;;;;;;5054021;28;20035;-82
2022/09/20 07:14:43;;;;;;;7.10;1.60;;;12.40;99.90;;;;;;5037632;28;20124;-82
2022/09/20 07:17:08;;;;;;;7.57;1.55;;;12.50;99.90;;;;;;5053701;28;20080;-82
2022/09/20 07:19:35;;;;;;;6.38;1.45;;;12.60;99.90;;;;;;5036914;28;20057;-82
2022/09/20 07:22:01;;;;;;;4.38;1.20;;;12.60;99.90;;;;;;5054948;28;20032;-82
2022/09/20 07:24:31;;;;;;;5.13;1.00;;;12.70;99.90;;;;;;5054828;28;20021;-82
2022/09/20 07:26:59;;;;;;;5.95;1.30;;;12.70;99.90;;;;;;5053741;28;20025;-81
2022/09/20 07:29:26;;;;;;;4.28;1.08;;;12.80;99.90;;;;;;5053706;28;20502;-82
2022/09/20 07:31:51;;;;;;;4.35;1.00;;;12.70;99.90;;;;;;5053802;28;20064;-82
2022/09/20 07:34:19;;;;;;;6.88;0.80;;;12.80;99.90;;;;;;5037118;28;20053;-82
2022/09/20 07:36:46;;;;;;;6.22;1.20;;;12.80;99.90;;;;;;5053666;28;20365;-82
2022/09/20 07:39:11;;;;;;;6.85;1.20;;;12.90;99.90;;;;;;5053220;28;20045;-82
2022/09/20 07:41:37;;;;;;;5.95;0.90;;;12.90;99.90;;;;;;5036315;28;20543;-82
2022/09/20 07:44:20;;;;;;;3.50;0.82;;;13.10;99.90;;;;;;5053539;28;20028;-82
2022/09/20 07:46:50;;;;;;;5.18;0.98;;;13.10;99.90;;;;;;5039388;28;20025;-82
2022/09/20 07:49:16;;;;;;;6.00;1.15;;;13.20;99.90;;;;;;5054434;28;20037;-82
2022/09/20 07:51:42;;;;;;;4.43;0.90;;;13.30;99.90;;;;;;5054064;28;20492;-82
2022/09/20 07:54:07;;;;;;;4.70;1.02;;;13.30;99.90;;;;;;5052930;28;20052;-82
2022/09/20 07:56:34;;;;;;;3.47;1.20;;;13.40;99.90;;;;;;5052915;28;20036;-81
2022/09/20 07:58:59;;;;;;;8.82;1.30;;;13.50;99.70;;;;;;5053083;28;20082;-82
2022/09/20 08:01:25;;;;;;;9.18;1.38;;;13.60;99.60;;;;;;5036329;28;20053;-82
2022/09/20 08:03:50;;;;;;;5.63;1.50;;;13.60;99.40;;;;;;5053136;28;20461;-82
2022/09/20 08:06:17;;;;;;;7.15;1.38;;;13.60;99.20;;;;;;5052812;28;20079;-82
2022/09/20 08:08:43;;;;;;;6.32;1.10;;;13.70;99.10;;;;;;5053195;28;20120;-82
2022/09/20 08:11:16;;;;;;;6.65;1.38;;;13.80;99.00;;;;;;5052677;28;20464;-82
2022/09/20 08:13:47;;;;;;;8.40;1.30;;;13.80;98.80;;;;;;5052724;28;20156;-82
2022/09/20 08:16:13;;;;;;;6.43;1.50;;;13.80;98.60;;;;;;5053966;28;20032;-81
2022/09/20 08:18:57;;;;;;;5.70;1.30;;;13.80;98.40;;;;;;5052913;28;20110;-82
2022/09/20 08:21:25;;;;;;;5.82;1.27;;;13.90;98.20;;;;;;5054011;28;20028;-82
2022/09/20 08:23:51;;;;;;;12.77;2.10;;;13.90;98.00;;;;;;5054318;28;20027;-81
2022/09/20 08:26:19;;;;;;;8.02;1.08;;;13.90;97.80;;;;;;5053585;28;20123;-82
2022/09/20 08:28:51;;;;;;;5.90;1.33;;;13.90;97.70;;;;;;5053481;28;20039;-82
2022/09/20 08:31:18;;;;;;;6.45;1.42;;;13.90;97.70;;;;;;5052641;28;20115;-82
2022/09/20 08:33:45;;;;;;;3.60;0.80;;;14.00;97.60;;;;;;5054313;28;20025;-82
2022/09/20 08:36:13;;;;;;;10.88;1.00;;;14.20;97.60;;;;;;5052435;28;20408;-82
2022/09/20 08:38:39;;;;;;;6.70;0.50;;;14.30;97.50;;;;;;5052028;28;20025;-82
2022/09/20 08:41:29;;;;;;;8.15;0.80;;;14.50;97.50;;;;;;5053061;28;20037;-82
2022/09/20 08:44:24;;;;;;;7.40;0.68;;;14.70;97.20;;;;;;5052440;28;20389;-82
2022/09/20 08:47:01;;;;;;;3.63;0.52;;;14.90;96.70;;;;;;5052363;28;20616;-82
2022/09/20 08:49:28;;;;;;;2.28;0.43;;;15.10;96.40;;;;;;5052030;28;20037;-82
2022/09/20 08:51:57;;;;;;;3.95;0.35;;;15.20;95.40;;;;;;5051914;28;20168;-82
2022/09/20 08:54:23;;;;;;;3.95;0.60;;;15.20;94.30;;;;;;5051842;28;20126;-82
2022/09/20 08:56:50;;;;;;;2.70;0.40;;;15.20;93.50;;;;;;5052362;28;20060;-82
2022/09/20 08:59:19;;;;;;;4.05;0.35;;;15.20;93.20;;;;;;5051977;28;20025;-81
2022/09/20 09:01:50;;;;;;;4.80;0.40;;;15.20;93.00;;;;;;5053137;28;20258;-81
2022/09/20 09:04:18;;;;;;;2.47;0.35;;;15.20;92.80;;;;;;5053007;28;20396;-81
2022/09/20 09:06:44;;;;;;;2.80;0.40;;;15.20;92.70;;;;;;5052899;28;20028;-81
2022/09/20 09:09:19;;;;;;;4.55;0.38;;;15.30;92.80;;;;;;5053766;28;20116;-81
2022/09/20 09:11:45;;;;;;;;;;;15.40;92.60;;;;;;5053117;28;20032;-82
2022/09/20 09:17:02;;;;;;;5.35;0.38;;;15.50;92.20;;;;;;5053064;28;20040;-82
2022/09/20 09:19:31;;;;;;;5.15;0.60;;;15.50;91.60;;;;;;5051936;28;20033;-82
2022/09/20 09:22:02;;;;;;;5.00;0.50;;;15.40;90.60;;;;;;5051679;28;20053;-82
2022/09/20 09:24:30;;;;;;;4.03;0.85;;;15.30;90.20;;;;;;5051489;28;20062;-82
2022/09/20 09:27:12;;;;;;;7.50;0.60;;;15.30;90.00;;;;;;5051764;28;20029;-82
2022/09/20 09:29:51;;;;;;;2.83;0.30;;;15.20;90.10;;;;;;5051558;28;20045;-82
2022/09/20 09:32:27;;;;;;;2.15;0.45;;;15.20;90.10;;;;;;5052086;28;20465;-81
2022/09/20 09:34:54;;;;;;;4.00;0.40;;;15.20;89.80;;;;;;5051803;28;20029;-82
2022/09/20 09:37:29;;;;;;;3.33;0.38;;;15.20;89.80;;;;;;5035203;28;20110;-82
2022/09/20 09:40:15;;;;;;;2.50;0.30;;;15.20;89.80;;;;;;5051721;28;20067;-82
2022/09/20 09:42:58;;;;;;;7.63;0.75;;;15.20;89.50;;;;;;5051086;28;20481;-81
2022/09/20 09:45:37;;;;;;;9.25;0.80;;;15.20;89.30;;;;;;5051527;28;20025;-81
2022/09/20 09:48:19;;;;;;;6.53;0.50;;;15.30;89.70;;;;;;5052874;28;20075;-82
2022/09/20 09:50:44;;;;;;;6.82;0.90;;;15.40;89.60;;;;;;5051491;28;20124;-82
2022/09/20 09:53:21;;;;;;;2.35;0.40;;;15.40;89.00;;;;;;5052793;28;20105;-82
2022/09/20 09:55:56;;;;;;;2.15;0.40;;;15.50;89.20;;;;;;5050707;28;20547;-81
2022/09/20 09:58:33;;;;;;;6.28;0.90;;;15.60;88.90;;;;;;5051666;28;20066;-82
2022/09/20 10:01:04;;;;;;;3.15;0.50;;;15.70;88.30;;;;;;5051359;28;20018;-81
2022/09/20 10:03:48;;;;;;;2.53;0.50;;;15.80;88.10;;;;;;5050850;28;20025;-82
2022/09/20 10:06:25;;;;;;;3.78;0.40;;;15.90;87.90;;;;;;5051342;28;20021;-82
2022/09/20 10:09:20;;;;;;;4.10;0.75;;;16.00;87.50;;;;;;5055200;28;20127;-82
2022/09/20 10:12:01;;;;;;;3.10;0.40;;;16.20;87.50;;;;;;5056557;28;20116;-82
2022/09/20 10:14:52;;;;;;;2.70;0.40;;;16.80;88.30;;;;;;5054787;28;20029;-82
2022/09/20 10:17:27;;;;;;;7.38;0.50;;;17.60;88.20;;;;;;5054849;28;20049;-82
2022/09/20 10:20:21;;;;;;;2.00;0.63;;;18.20;87.80;;;;;;5055060;28;20083;-83
2022/09/20 10:22:50;;;;;;;1.95;0.30;;;18.70;86.30;;;;;;5046096;28;20433;-82
2022/09/20 10:25:34;;;;;;;2.35;0.40;;;19.30;84.10;;;;;;5056203;28;20361;-82
2022/09/20 10:28:12;;;;;;;2.92;0.40;;;19.60;81.40;;;;;;5054750;28;20025;-82
2022/09/20 10:30:46;;;;;;;2.30;0.20;;;19.80;79.10;;;;;;5055757;28;20493;-82
2022/09/20 10:33:30;;;;;;;2.15;0.40;;;20.00;76.60;;;;;;5054460;28;20495;-82
2022/09/20 10:36:13;;;;;;;3.70;0.30;;;20.30;74.90;;;;;;5054968;28;20032;-82
2022/09/20 10:38:53;;;;;;;2.35;0.40;;;20.50;73.20;;;;;;5054772;28;20058;-81
2022/09/20 10:45:00;;;;;;;3.45;0.30;;;20.30;69.80;;;;;;5055555;28;20554;-82
2022/09/20 10:47:35;;;;;;;4.85;0.40;;;20.00;68.90;;;;;;5055559;28;20021;-82
2022/09/20 10:50:17;;;;;;;1.10;0.30;;;19.70;68.10;;;;;;5054602;28;20033;-81
2022/09/20 10:53:01;;;;;;;4.43;0.60;;;19.40;68.30;;;;;;5055654;28;20025;-82
2022/09/20 10:55:44;;;;;;;3.30;0.60;;;19.50;69.60;;;;;;5054269;28;20029;-82
2022/09/20 10:58:34;;;;;;;4.43;0.60;;;19.50;69.20;;;;;;5053844;28;20029;-82
2022/09/20 11:01:33;;;;;;;2.63;0.50;;;19.30;68.60;;;;;;5054442;28;20100;-82
2022/09/20 11:04:19;;;;;;;5.55;0.98;;;19.10;69.10;;;;;;5055631;28;20354;-81
2022/09/20 11:07:10;;;;;;;3.35;0.63;;;19.00;69.10;;;;;;5055210;28;20091;-82
2022/09/20 11:09:42;;;;;;;2.15;0.60;;;19.00;69.90;;;;;;5055383;28;20029;-82
2022/09/20 11:12:31;;;;;;;2.33;0.52;;;19.00;69.80;;;;;;5053893;28;20193;-82
2022/09/20 11:15:20;;;;;;;4.75;0.70;;;19.00;69.70;;;;;;5053784;28;20033;-82
2022/09/20 11:18:00;;;;;;;4.13;0.50;;;19.00;69.70;;;;;;5053381;28;20041;-82
2022/09/20 11:20:34;;;;;;;6.35;1.15;;;18.90;69.70;;;;;;5053698;28;20468;-82
2022/09/20 11:23:08;;;;;;;3.03;0.50;;;18.90;69.20;;;;;;5053674;28;20419;-82
2022/09/20 11:25:45;;;;;;;2.78;0.60;;;19.00;68.50;;;;;;5053951;28;20479;-82
2022/09/20 11:28:19;;;;;;;5.10;0.50;;;19.00;67.50;;;;;;5053896;28;20376;-82
2022/09/20 11:30:59;;;;;;;8.93;0.85;;;19.00;67.60;;;;;;5055116;28;20029;-82
2022/09/20 11:33:36;;;;;;;6.43;0.40;;;19.10;67.40;;;;;;5039444;28;20033;-82
2022/09/20 11:36:05;;;;;;;3.53;0.60;;;19.10;66.70;;;;;;5033537;28;20025;-81
2022/09/20 11:38:36;;;;;;;4.03;0.80;;;19.30;66.70;;;;;;5034020;28;20102;-82
2022/09/20 11:41:12;;;;;;;4.93;0.65;;;19.40;66.90;;;;;;5033975;28;20025;-82
2022/09/20 11:43:43;;;;;;;4.40;0.60;;;19.30;66.60;;;;;;5032418;28;20090;-82
2022/09/20 11:46:14;;;;;;;4.32;0.50;;;19.30;67.20;;;;;;5033323;28;20033;-82
2022/09/20 11:49:11;;;;;;;3.95;0.52;;;19.30;67.50;;;;;;5034275;28;20041;-82
2022/09/20 11:51:48;;;;;;;3.08;0.47;;;19.20;67.70;;;;;;5029625;28;20025;-81
2022/09/20 11:54:32;;;;;;;2.75;0.75;;;19.10;67.90;;;;;;5033650;28;20025;-82
2022/09/20 11:56:58;;;;;;;6.60;0.60;;;19.00;67.90;;;;;;5033272;28;20025;-81
2022/09/20 11:59:40;;;;;;;4.60;0.57;;;19.00;67.90;;;;;;5033894;28;20083;-82
2022/09/20 12:02:43;;;;;;;4.38;1.10;;;18.90;67.70;;;;;;5033076;28;20025;-81
2022/09/20 12:05:28;;;;;;;5.07;0.57;;;18.80;67.70;;;;;;5033249;28;20026;-81
2022/09/20 12:07:57;;;;;;;2.25;0.30;;;18.90;68.00;;;;;;5032929;28;20029;-81
2022/09/20 12:10:29;;;;;;;3.47;0.40;;;19.20;68.50;;;;;;5032948;28;20037;-82
2022/09/20 12:13:05;;;;;;;2.60;0.22;;;19.80;68.60;;;;;;5033846;28;20029;-81
2022/09/20 12:15:32;;;;;;;2.75;0.50;;;20.10;67.10;;;;;;5033018;28;20477;-82
2022/09/20 12:17:58;;;;;;;4.90;0.50;;;20.10;65.50;;;;;;5032599;28;20099;-82
2022/09/20 12:21:01;;;;;;;2.75;0.68;;;20.30;65.00;;;;;;5034472;28;20025;-82
2022/09/20 12:23:41;;;;;;;3.30;0.47;;;20.50;63.10;;;;;;5019968;28;20041;-81
2022/09/20 12:26:12;;;;;;;3.92;0.50;;;20.50;63.00;;;;;;5033707;28;20547;-81
2022/09/20 12:28:42;;;;;;;6.22;0.50;;;20.50;62.60;;;;;;5032795;28;20025;-81
2022/09/20 12:31:17;;;;;;;3.67;0.60;;;20.40;61.70;;;;;;5031940;28;20087;-81
2022/09/20 12:33:58;;;;;;;2.70;0.47;;;20.20;61.90;;;;;;5032934;28;20115;-81
2022/09/20 12:36:27;;;;;;;3.17;0.35;;;20.00;61.40;;;;;;5033658;28;20025;-81
2022/09/20 12:39:17;;;;;;;3.28;0.50;;;19.90;61.20;;;;;;5032034;28;20079;-81
2022/09/20 12:41:56;;;;;;;5.05;0.45;;;19.70;61.10;;;;;;5023092;28;20437;-81
2022/09/20 12:44:28;;;;;;;4.00;0.60;;;19.50;61.50;;;;;;5032221;28;20022;-81
2022/09/20 12:47:30;;;;;;;3.55;0.40;;;19.70;62.40;;;;;;5032675;28;20061;-82
2022/09/20 12:52:49;;;;;;;6.43;0.47;;;20.10;60.40;;;;;;5033472;28;20087;-81
2022/09/20 12:55:49;;;;;;;3.78;0.40;;;20.10;60.00;;;;;;5032193;28;20029;-81
2022/09/20 12:58:14;;;;;;;3.35;0.45;;;20.20;60.30;;;;;;5033482;28;20025;-81
2022/09/20 13:00:54;;;;;;;4.32;0.70;;;20.20;60.70;;;;;;5033973;28;20021;-81
2022/09/20 13:03:35;;;;;;;4.22;0.55;;;20.10;60.50;;;;;;5032135;28;20025;-81
2022/09/20 13:06:07;;;;;;;2.17;0.30;;;20.00;60.80;;;;;;5032208;28;20022;-81
2022/09/20 13:09:03;;;;;;;4.32;0.30;;;20.20;61.20;;;;;;5032972;28;20037;-82
2022/09/20 13:12:04;;;;;;;6.07;0.60;;;20.20;61.00;;;;;;5028736;28;20033;-81
2022/09/20 13:14:32;;;;;;;4.40;0.50;;;20.40;60.10;;;;;;4992940;28;20035;-81
2022/09/20 13:17:18;;;;;;;3.10;0.40;;;20.70;60.30;;;;;;5024717;28;20041;-82
2022/09/20 13:19:48;;;;;;;1.88;0.30;;;21.00;59.70;;;;;;5031730;28;20026;-82
2022/09/20 13:22:33;;;;;;;2.67;0.50;;;21.00;59.30;;;;;;5016326;28;20028;-81
2022/09/20 13:25:02;;;;;;;3.80;0.70;;;20.90;58.90;;;;;;5032962;28;20022;-81
2022/09/20 13:28:00;;;;;;;5.40;0.45;;;20.60;58.70;;;;;;5033286;28;20481;-82
2022/09/20 13:30:30;;;;;;;2.80;0.50;;;20.30;58.90;;;;;;5031950;28;20123;-81
2022/09/20 13:32:57;;;;;;;3.03;0.40;;;19.90;59.60;;;;;;5032088;28;20029;-81
2022/09/20 13:35:30;;;;;;;3.92;0.40;;;19.60;60.30;;;;;;5015509;28;20033;-81
2022/09/20 13:38:08;;;;;;;3.85;0.43;;;19.30;61.40;;;;;;5031386;28;20018;-81
2022/09/20 13:40:42;;;;;;;4.68;0.38;;;19.00;62.20;;;;;;5031932;28;20088;-80
2022/09/20 13:43:19;;;;;;;2.72;0.40;;;18.80;62.90;;;;;;5036051;28;20036;-81
2022/09/20 13:45:46;;;;;;;5.38;0.40;;;18.70;63.60;;;;;;5035942;28;20469;-81
2022/09/20 13:48:12;;;;;;;2.90;0.35;;;18.60;63.90;;;;;;5035354;28;20068;-81
2022/09/20 13:50:39;;;;;;;4.13;0.40;;;18.50;64.30;;;;;;5019038;28;20107;-81
2022/09/20 13:53:15;;;;;;;5.75;0.43;;;18.50;64.50;;;;;;5035987;28;20040;-81
2022/09/20 13:55:42;;;;;;;6.15;0.93;;;18.60;64.80;;;;;;5036537;28;20033;-81
2022/09/20 13:58:20;;;;;;;2.92;0.60;;;18.70;64.90;;;;;;5019127;28;20125;-81
2022/09/20 14:00:49;;;;;;;2.92;0.50;;;19.20;66.10;;;;;;5035531;28;20021;-82
2022/09/20 14:03:17;;;;;;;4.00;0.45;;;20.00;65.80;;;;;;5035528;28;20025;-82
2022/09/20 14:05:48;;;;;;;2.78;0.30;;;20.60;64.50;;;;;;5036154;28;20021;-81
2022/09/20 14:08:23;;;;;;;3.28;0.77;;;21.00;63.20;;;;;;5035334;28;20029;-81
2022/09/20 14:11:01;;;;;;;4.97;0.63;;;21.30;62.10;;;;;;5036194;28;20044;-81
2022/09/20 14:13:32;;;;;;;2.92;0.30;;;21.30;61.10;;;;;;5020095;28;20048;-81
2022/09/20 14:15:58;;;;;;;1.75;0.30;;;21.40;60.40;;;;;;5036521;28;20055;-81